createdAt,value
2022-12-05T00:01:41.177Z,98376.56
2022-12-05T00:04:44.517Z,98384.41
2022-12-05T00:07:48.116Z,98368.41
2022-12-05T00:10:50.251Z,98364.03
2022-12-05T00:13:54.850Z,98360.94
2022-12-05T00:16:57.118Z,98347.09
2022-12-05T00:19:59.637Z,98346.00
2022-12-05T00:23:02.186Z,98349.97
2022-12-05T00:26:04.704Z,98340.09
2022-12-05T00:29:06.712Z,98339.97
2022-12-05T00:32:08.563Z,98340.09
2022-12-05T00:35:10.728Z,98325.38
2022-12-05T00:38:12.951Z,98331.25
2022-12-05T00:41:21.336Z,98332.50
2022-12-05T00:44:23.214Z,98333.75
2022-12-05T00:47:24.968Z,98326.06
2022-12-05T00:50:27.237Z,98333.38
2022-12-05T00:53:29.268Z,98332.50
2022-12-05T00:56:31.848Z,98350.88
2022-12-05T00:59:33.837Z,98352.34
2022-12-05T01:02:35.624Z,98338.56
2022-12-05T01:05:37.691Z,98351.59
2022-12-05T01:08:40.344Z,98356.59
2022-12-05T01:11:42.751Z,98361.06
2022-12-05T01:14:44.607Z,98367.53
2022-12-05T01:17:46.510Z,98368.66
2022-12-05T01:20:49.297Z,98372.00
2022-12-05T01:23:51.389Z,98376.25
2022-12-05T01:26:53.358Z,98371.66
2022-12-05T01:29:56.161Z,98369.16
2022-12-05T01:32:59.374Z,98373.25
2022-12-05T01:36:02.510Z,98376.16
2022-12-05T01:39:04.250Z,98375.84
2022-12-05T01:42:06.117Z,98373.78
2022-12-05T01:45:15.820Z,98380.28
2022-12-05T01:48:24.267Z,98376.25
2022-12-05T01:51:26.134Z,98372.06
2022-12-05T01:54:28.369Z,98365.53
2022-12-05T01:57:30.911Z,98371.47
2022-12-05T02:00:36.296Z,98360.94
2022-12-05T02:03:38.669Z,98357.88
2022-12-05T02:06:40.692Z,98355.16
2022-12-05T02:09:42.654Z,98355.00
2022-12-05T02:12:45.473Z,98355.19
2022-12-05T02:16:03.501Z,98355.94
2022-12-05T02:19:30.278Z,98344.13
2022-12-05T02:22:54.365Z,98348.00
2022-12-05T02:26:15.031Z,98346.97
2022-12-05T02:29:54.661Z,98349.94
2022-12-05T02:33:17.357Z,98351.50
2022-12-05T02:36:32.575Z,98355.53
2022-12-05T02:39:57.704Z,98352.19
2022-12-05T02:43:03.775Z,98346.28
2022-12-05T02:46:12.168Z,98343.22
2022-12-05T02:49:18.008Z,98336.56
2022-12-05T02:52:21.603Z,98330.59
2022-12-05T02:55:24.430Z,98324.44
2022-12-05T02:58:32.493Z,98319.88
2022-12-05T03:01:34.367Z,98322.53
2022-12-05T03:04:36.485Z,98310.03
2022-12-05T03:07:39.108Z,98323.22
2022-12-05T03:10:42.137Z,98314.31
2022-12-05T03:13:56.645Z,98312.91
2022-12-05T03:17:01.642Z,98323.63
2022-12-05T03:20:16.267Z,98321.13
2022-12-05T03:23:22.456Z,98320.28
2022-12-05T03:26:42.902Z,98311.66
2022-12-05T03:29:56.392Z,98325.16
2022-12-05T03:33:32.166Z,98326.25
2022-12-05T03:36:39.716Z,98327.22
2022-12-05T03:39:45.099Z,98328.41
2022-12-05T03:42:55.888Z,98334.22
2022-12-05T03:46:05.975Z,98336.31
2022-12-05T03:49:11.474Z,98329.00
2022-12-05T03:52:18.144Z,98325.66
2022-12-05T03:55:20.344Z,98327.34
2022-12-05T03:58:51.664Z,98328.63
2022-12-05T04:01:56.137Z,98329.59
2022-12-05T04:05:13.516Z,98318.34
2022-12-05T04:08:39.220Z,98327.34
2022-12-05T04:11:44.281Z,98324.63
2022-12-05T04:14:50.294Z,98336.31
2022-12-05T04:17:57.556Z,98338.47
2022-12-05T04:21:19.081Z,98344.19
2022-12-05T04:24:57.168Z,98338.38
2022-12-05T04:28:10.971Z,98337.44
2022-12-05T04:31:23.496Z,98338.97
2022-12-05T04:34:28.720Z,98328.50
2022-12-05T04:37:32.339Z,98334.00
2022-12-05T04:40:39.305Z,98340.84
2022-12-05T04:43:44.131Z,98333.16
2022-12-05T04:46:46.954Z,98336.38
2022-12-05T04:49:53.513Z,98333.63
2022-12-05T04:52:56.801Z,98333.41
2022-12-05T04:56:00.515Z,98336.13
2022-12-05T04:59:03.078Z,98333.31
2022-12-05T05:02:08.640Z,98329.97
2022-12-05T05:05:14.077Z,98326.63
2022-12-05T05:08:19.398Z,98330.09
2022-12-05T05:11:26.030Z,98332.78
2022-12-05T05:14:28.504Z,98338.84
2022-12-05T05:17:30.698Z,98336.94
2022-12-05T05:20:32.551Z,98335.41
2022-12-05T05:23:34.478Z,98344.19
2022-12-05T05:26:39.104Z,98339.78
2022-12-05T05:29:41.149Z,98338.16
2022-12-05T05:32:43.450Z,98321.69
2022-12-05T05:35:45.410Z,98336.09
2022-12-05T05:38:49.665Z,98329.22
2022-12-05T05:41:51.421Z,98330.88
2022-12-05T05:44:53.776Z,98329.47
2022-12-05T05:47:55.700Z,98326.97
2022-12-05T05:51:02.114Z,98335.13
2022-12-05T05:54:04.194Z,98335.13
2022-12-05T05:57:06.169Z,98337.41
2022-12-05T06:00:09.073Z,98329.47
2022-12-05T06:03:11.105Z,98346.00
2022-12-05T06:06:15.003Z,98344.88
2022-12-05T06:09:16.793Z,98353.44
2022-12-05T06:12:19.225Z,98361.25
2022-12-05T06:15:21.097Z,98350.47
2022-12-05T06:18:23.135Z,98349.03
2022-12-05T06:21:26.303Z,98352.56
2022-12-05T06:24:28.125Z,98361.72
2022-12-05T06:27:31.589Z,98358.63
2022-12-05T06:30:33.414Z,98359.34
2022-12-05T06:33:35.332Z,98362.91
2022-12-05T06:36:37.666Z,98369.44
2022-12-05T06:39:39.879Z,98373.34
2022-12-05T06:42:41.880Z,98373.34
2022-12-05T06:45:43.847Z,98385.47
2022-12-05T06:48:46.007Z,98379.16
2022-12-05T06:51:48.142Z,98389.56
2022-12-05T06:54:50.179Z,98389.59
2022-12-05T06:57:52.176Z,98402.75
2022-12-05T07:01:13.204Z,98403.34
2022-12-05T07:04:21.030Z,98405.63
2022-12-05T07:07:23.478Z,98405.00
2022-12-05T07:10:25.317Z,98402.31
2022-12-05T07:13:27.548Z,98410.84
2022-12-05T07:16:29.640Z,98413.94
2022-12-05T07:19:32.207Z,98404.78
2022-12-05T07:22:37.115Z,98409.16
2022-12-05T07:25:40.527Z,98409.16
2022-12-05T07:28:42.654Z,98410.84
2022-12-05T07:31:44.900Z,98410.59
2022-12-05T07:34:52.145Z,98414.75
2022-12-05T07:37:57.868Z,98408.13
2022-12-05T07:41:00.043Z,98406.25
2022-12-05T07:44:02.446Z,98415.72
2022-12-05T07:47:04.594Z,98420.34
2022-12-05T07:50:07.037Z,98424.88
2022-12-05T07:53:09.540Z,98436.28
2022-12-05T07:56:19.470Z,98429.38
2022-12-05T07:59:21.328Z,98426.75
2022-12-05T08:02:23.280Z,98427.25
2022-12-05T08:05:26.273Z,98424.88
2022-12-05T08:08:28.004Z,98429.16
2022-12-05T08:11:34.731Z,98430.00
2022-12-05T08:14:36.710Z,98427.13
2022-12-05T08:17:39.102Z,98429.13
2022-12-05T08:20:41.189Z,98434.00
2022-12-05T08:23:43.615Z,98430.22
2022-12-05T08:26:45.979Z,98429.84
2022-12-05T08:29:47.960Z,98432.25
2022-12-05T08:32:49.999Z,98434.13
2022-12-05T08:35:52.044Z,98429.28
2022-12-05T08:39:02.953Z,98429.66
2022-12-05T08:42:05.004Z,98428.69
2022-12-05T08:45:07.746Z,98444.00
2022-12-05T08:48:09.763Z,98439.03
2022-12-05T08:51:13.205Z,98444.63
2022-12-05T08:54:15.461Z,98447.19
2022-12-05T08:57:17.274Z,98450.75
2022-12-05T09:00:20.024Z,98455.13
2022-12-05T09:03:22.034Z,98445.28
2022-12-05T09:06:25.482Z,98440.31
2022-12-05T09:09:27.774Z,98435.81
2022-12-05T09:12:29.558Z,98436.56
2022-12-05T09:15:31.811Z,98436.78
2022-12-05T09:18:34.278Z,98438.81
2022-12-05T09:21:36.338Z,98438.81
2022-12-05T09:24:38.807Z,98434.91
2022-12-05T09:27:40.762Z,98442.97
2022-12-05T09:30:44.169Z,98433.97
2022-12-05T09:33:47.346Z,98434.81
2022-12-05T09:37:05.452Z,98426.38
2022-12-05T09:40:17.718Z,98433.38
2022-12-05T09:43:32.498Z,98436.09
2022-12-05T09:46:55.365Z,98432.19
2022-12-05T09:50:23.990Z,98435.84
2022-12-05T09:53:30.926Z,98436.09
2022-12-05T09:56:33.133Z,98444.88
2022-12-05T09:59:35.409Z,98444.88
2022-12-05T10:02:44.276Z,98430.41
2022-12-05T10:06:20.945Z,98445.47
2022-12-05T10:09:44.471Z,98435.88
2022-12-05T10:13:01.961Z,98434.69
2022-12-05T10:16:10.626Z,98432.69
2022-12-05T10:19:24.600Z,98427.91
2022-12-05T10:22:43.270Z,98428.63
2022-12-05T10:25:45.592Z,98425.66
2022-12-05T10:29:13.353Z,98423.66
2022-12-05T10:33:05.008Z,98423.38
2022-12-05T10:36:13.311Z,98416.41
2022-12-05T10:39:15.530Z,98411.88
2022-12-05T10:42:27.520Z,98404.06
2022-12-05T10:45:29.511Z,98405.22
2022-12-05T10:48:38.757Z,98399.06
2022-12-05T10:51:40.878Z,98402.63
2022-12-05T10:54:49.818Z,98394.34
2022-12-05T10:58:02.717Z,98395.16
2022-12-05T11:01:09.764Z,98391.59
2022-12-05T11:04:31.022Z,98393.84
2022-12-05T11:07:45.873Z,98390.53
2022-12-05T11:10:47.726Z,98386.50
2022-12-05T11:13:59.114Z,98386.97
2022-12-05T11:17:02.942Z,98381.13
2022-12-05T11:20:25.236Z,98386.72
2022-12-05T11:23:30.457Z,98391.13
2022-12-05T11:26:37.446Z,98388.03
2022-12-05T11:29:40.165Z,98385.66
2022-12-05T11:32:42.398Z,98385.19
2022-12-05T11:35:45.275Z,98387.22
2022-12-05T11:38:47.503Z,98380.56
2022-12-05T11:41:52.814Z,98382.47
2022-12-05T11:45:13.088Z,98385.31
2022-12-05T11:48:37.011Z,98380.34
2022-12-05T11:52:13.309Z,98378.06
2022-12-05T11:55:19.895Z,98380.09
2022-12-05T11:58:31.155Z,98373.91
2022-12-05T12:01:54.670Z,98370.09
2022-12-05T12:05:11.935Z,98371.44
2022-12-05T12:08:27.959Z,98367.63
2022-12-05T12:11:47.683Z,98363.13
2022-12-05T12:15:09.130Z,98359.91
2022-12-05T12:18:29.543Z,98359.19
2022-12-05T12:22:05.860Z,98360.88
2022-12-05T12:25:27.433Z,98354.44
2022-12-05T12:28:46.155Z,98358.13
2022-12-05T12:32:02.032Z,98361.34
2022-12-05T12:35:16.626Z,98354.78
2022-12-05T12:38:22.096Z,98349.91
2022-12-05T12:41:50.187Z,98351.13
2022-12-05T12:45:04.368Z,98353.16
2022-12-05T12:48:34.776Z,98350.91
2022-12-05T12:51:49.156Z,98344.81
2022-12-05T12:55:30.330Z,98350.03
2022-12-05T12:58:35.170Z,98336.63
2022-12-05T13:02:10.681Z,98344.22
2022-12-05T13:05:24.562Z,98339.00
2022-12-05T13:08:50.419Z,98340.94
2022-12-05T13:11:53.589Z,98337.16
2022-12-05T13:15:00.825Z,98336.78
2022-12-05T13:18:05.087Z,98334.03
2022-12-05T13:21:09.226Z,98331.91
2022-12-05T13:24:12.327Z,98334.38
2022-12-05T13:27:18.529Z,98340.47
2022-12-05T13:30:20.877Z,98333.81
2022-12-05T13:33:26.496Z,98334.75
2022-12-05T13:36:47.177Z,98333.34
2022-12-05T13:40:13.235Z,98331.91
2022-12-05T13:43:18.939Z,98334.78
2022-12-05T13:46:26.965Z,98333.34
2022-12-05T13:49:43.723Z,98331.22
2022-12-05T13:52:49.536Z,98331.94
2022-12-05T13:56:00.925Z,98322.53
2022-12-05T13:59:03.407Z,98317.81
2022-12-05T14:02:47.464Z,98314.13
2022-12-05T14:05:51.887Z,98311.75
2022-12-05T14:08:54.869Z,98313.88
2022-12-05T14:12:15.144Z,98307.00
2022-12-05T14:15:29.373Z,98306.16
2022-12-05T14:18:47.215Z,98304.41
2022-12-05T14:21:49.445Z,98311.28
2022-12-05T14:25:00.386Z,98297.53
2022-12-05T14:28:02.443Z,98291.09
2022-12-05T14:31:26.385Z,98297.63
2022-12-05T14:34:30.578Z,98295.84
2022-12-05T14:37:36.939Z,98291.09
2022-12-05T14:40:44.063Z,98288.50
2022-12-05T14:43:52.914Z,98288.25
2022-12-05T14:46:55.092Z,98287.31
2022-12-05T14:50:35.366Z,98282.69
2022-12-05T14:53:42.381Z,98275.91
2022-12-05T14:56:46.539Z,98272.00
2022-12-05T15:00:10.048Z,98271.88
2022-12-05T15:03:22.522Z,98267.25
2022-12-05T15:06:28.298Z,98278.28
2022-12-05T15:09:38.163Z,98276.59
2022-12-05T15:13:11.362Z,98276.38
2022-12-05T15:16:16.889Z,98281.13
2022-12-05T15:19:33.893Z,98277.81
2022-12-05T15:22:37.678Z,98285.66
2022-12-05T15:25:39.955Z,98280.88
2022-12-05T15:28:42.219Z,98279.56
2022-12-05T15:31:48.223Z,98283.97
2022-12-05T15:35:05.329Z,98285.38
2022-12-05T15:38:31.059Z,98276.72
2022-12-05T15:41:33.280Z,98287.13
2022-12-05T15:44:38.253Z,98281.09
2022-12-05T15:47:46.430Z,98276.19
2022-12-05T15:50:51.645Z,98281.66
2022-12-05T15:54:01.075Z,98278.00
2022-12-05T15:57:08.125Z,98271.13
2022-12-05T16:00:19.036Z,98275.63
2022-12-05T16:03:28.798Z,98278.22
2022-12-05T16:06:41.212Z,98267.09
2022-12-05T16:09:45.124Z,98274.66
2022-12-05T16:12:48.383Z,98289.84
2022-12-05T16:15:53.343Z,98278.94
2022-12-05T16:19:00.377Z,98279.28
2022-12-05T16:22:14.776Z,98300.28
2022-12-05T16:25:22.116Z,98295.31
2022-12-05T16:28:24.528Z,98293.66
2022-12-05T16:31:27.373Z,98295.28
2022-12-05T16:34:33.279Z,98289.59
2022-12-05T16:37:35.617Z,98298.25
2022-12-05T16:41:00.412Z,98298.63
2022-12-05T16:44:10.753Z,98293.66
2022-12-05T16:47:26.604Z,98298.44
2022-12-05T16:50:35.131Z,98292.59
2022-12-05T16:53:40.211Z,98294.63
2022-12-05T16:56:43.290Z,98301.00
2022-12-05T16:59:49.084Z,98295.78
2022-12-05T17:02:55.268Z,98311.94
2022-12-05T17:05:58.290Z,98302.06
2022-12-05T17:09:00.617Z,98305.16
2022-12-05T17:12:07.623Z,98304.56
2022-12-05T17:15:19.742Z,98297.91
2022-12-05T17:18:26.596Z,98293.28
2022-12-05T17:21:33.261Z,98278.72
2022-12-05T17:24:36.355Z,98294.81
2022-12-05T17:27:38.773Z,98294.13
2022-12-05T17:30:41.429Z,98293.88
2022-12-05T17:33:47.263Z,98303.72
2022-12-05T17:36:49.537Z,98304.34
2022-12-05T17:39:51.811Z,98299.81
2022-12-05T17:42:54.800Z,98311.41
2022-12-05T17:46:00.341Z,98305.34
2022-12-05T17:49:02.797Z,98295.88
2022-12-05T17:52:22.152Z,98293.66
2022-12-05T17:55:28.542Z,98297.09
2022-12-05T17:58:30.868Z,98281.75
2022-12-05T18:01:33.109Z,98279.88
2022-12-05T18:04:35.845Z,98289.06
2022-12-05T18:07:39.542Z,98285.88
2022-12-05T18:10:43.362Z,98295.38
2022-12-05T18:13:45.862Z,98299.75
2022-12-05T18:16:48.246Z,98307.78
2022-12-05T18:19:50.625Z,98304.47
2022-12-05T18:22:52.548Z,98311.13
2022-12-05T18:26:01.383Z,98314.78
2022-12-05T18:29:03.931Z,98293.66
2022-12-05T18:32:07.131Z,98288.97
2022-12-05T18:35:13.023Z,98289.66
2022-12-05T18:38:16.124Z,98283.97
2022-12-05T18:41:18.368Z,98283.03
2022-12-05T18:44:21.501Z,98272.38
2022-12-05T18:47:25.229Z,98286.25
2022-12-05T18:50:30.424Z,98276.38
2022-12-05T18:53:32.484Z,98283.28
2022-12-05T18:56:36.507Z,98290.63
2022-12-05T18:59:38.782Z,98287.81
2022-12-05T19:02:40.824Z,98285.78
2022-12-05T19:05:44.699Z,98281.16
2022-12-05T19:08:49.686Z,98284.25
2022-12-05T19:11:57.134Z,98268.59
2022-12-05T19:15:02.245Z,98266.69
2022-12-05T19:18:04.978Z,98269.31
2022-12-05T19:21:08.320Z,98268.44
2022-12-05T19:24:13.545Z,98263.94
2022-12-05T19:27:16.098Z,98262.41
2022-12-05T19:30:18.775Z,98259.34
2022-12-05T19:33:21.088Z,98260.78
2022-12-05T19:36:32.254Z,98260.44
2022-12-05T19:39:37.637Z,98261.34
2022-12-05T19:42:40.368Z,98256.84
2022-12-05T19:45:42.935Z,98257.31
2022-12-05T19:48:45.911Z,98261.00
2022-12-05T19:51:49.379Z,98256.75
2022-12-05T19:54:51.833Z,98259.13
2022-12-05T19:57:54.549Z,98244.41
2022-12-05T20:00:57.253Z,98243.19
2022-12-05T20:04:02.253Z,98234.06
2022-12-05T20:07:04.610Z,98245.38
2022-12-05T20:10:07.142Z,98245.59
2022-12-05T20:13:38.464Z,98250.69
2022-12-05T20:16:33.938Z,98241.91
2022-12-05T20:19:36.433Z,98241.56
2022-12-05T20:22:38.736Z,98244.41
2022-12-05T20:25:41.446Z,98247.50
2022-12-05T20:28:45.206Z,98243.44
2022-12-05T20:31:52.394Z,98234.44
2022-12-05T20:34:54.490Z,98233.38
2022-12-05T20:37:57.557Z,98229.22
2022-12-05T20:41:01.241Z,98238.25
2022-12-05T20:44:06.373Z,98244.66
2022-12-05T20:47:08.349Z,98243.44
2022-12-05T20:50:11.455Z,98237.16
2022-12-05T20:53:13.790Z,98232.44
2022-12-05T20:56:17.712Z,98238.00
2022-12-05T20:59:19.955Z,98233.25
2022-12-05T21:02:22.100Z,98220.81
2022-12-05T21:05:24.865Z,98220.34
2022-12-05T21:08:27.711Z,98229.94
2022-12-05T21:11:31.058Z,98223.53
2022-12-05T21:14:34.889Z,98219.03
2022-12-05T21:17:37.239Z,98214.66
2022-12-05T21:20:42.270Z,98221.06
2022-12-05T21:23:46.408Z,98220.94
2022-12-05T21:26:50.240Z,98208.84
2022-12-05T21:29:52.671Z,98213.84
2022-12-05T21:32:55.736Z,98208.03
2022-12-05T21:35:58.062Z,98203.16
2022-12-05T21:39:01.032Z,98196.41
2022-12-05T21:42:03.243Z,98189.88
2022-12-05T21:45:05.420Z,98205.16
2022-12-05T21:48:07.695Z,98198.19
2022-12-05T21:51:10.425Z,98195.56
2022-12-05T21:54:12.729Z,98202.78
2022-12-05T21:57:14.866Z,98197.94
2022-12-05T22:00:17.376Z,98192.72
2022-12-05T22:03:19.432Z,98197.72
2022-12-05T22:06:21.497Z,98190.81
2022-12-05T22:09:23.526Z,98189.53
2022-12-05T22:12:25.861Z,98183.13
2022-12-05T22:15:27.979Z,98178.50
2022-12-05T22:18:30.623Z,98170.41
2022-12-05T22:21:35.215Z,98165.78
2022-12-05T22:24:37.952Z,98149.97
2022-12-05T22:27:39.820Z,98158.81
2022-12-05T22:30:41.922Z,98152.28
2022-12-05T22:33:45.182Z,98144.13
2022-12-05T22:36:49.154Z,98147.34
2022-12-05T22:39:51.438Z,98146.97
2022-12-05T22:42:53.282Z,98143.41
2022-12-05T22:45:55.881Z,98139.03
2022-12-05T22:48:58.492Z,98133.31
2022-12-05T22:52:00.383Z,98124.44
2022-12-05T22:55:02.701Z,98113.91
2022-12-05T22:58:04.815Z,98118.06
2022-12-05T23:01:11.791Z,98117.56
2022-12-05T23:04:13.680Z,98106.09
2022-12-05T23:07:15.865Z,98108.69
2022-12-05T23:10:17.902Z,98114.00
2022-12-05T23:13:19.762Z,98100.97
2022-12-05T23:16:26.464Z,98091.69
2022-12-05T23:19:28.367Z,98088.41
2022-12-05T23:22:30.566Z,98081.25
2022-12-05T23:25:32.546Z,98077.00
2022-12-05T23:28:35.647Z,98073.81
2022-12-05T23:31:37.723Z,98067.88
2022-12-05T23:34:40.384Z,98064.88
2022-12-05T23:37:42.662Z,98059.16
2022-12-05T23:40:44.441Z,98061.06
2022-12-05T23:43:47.528Z,98050.38
2022-12-05T23:46:49.531Z,98047.69
2022-12-05T23:49:51.430Z,98054.94
2022-12-05T23:52:53.656Z,98042.53
2022-12-05T23:55:55.948Z,98040.97
2022-12-05T23:58:58.028Z,98025.03
